sensor_id;sensor_type;location;lat;lon;timestamp;pressure;altitude;pressure_sealevel;temperature;humidity
34370;BME280;20635;55.812;37.560;2023-03-14T06:08:28;98582.75;;;22.58;27.66
34370;BME280;20635;55.812;37.560;2023-03-14T06:10:54;98560.72;;;22.57;27.78
34370;BME280;20635;55.812;37.560;2023-03-14T06:13:27;98565.19;;;22.58;27.82
34370;BME280;20635;55.812;37.560;2023-03-14T06:15:53;98554.47;;;22.60;27.66
34370;BME280;20635;55.812;37.560;2023-03-14T06:18:19;98544.94;;;22.61;27.76
34370;BME280;20635;55.812;37.560;2023-03-14T06:20:45;98564.97;;;22.63;27.70
34370;BME280;20635;55.812;37.560;2023-03-14T06:23:23;98561.03;;;22.64;27.73
34370;BME280;20635;55.812;37.560;2023-03-14T06:25:51;98547.06;;;22.64;27.83
34370;BME280;20635;55.812;37.560;2023-03-14T06:28:17;98562.28;;;22.66;27.79
34370;BME280;20635;55.812;37.560;2023-03-14T06:30:43;98561.47;;;22.66;27.84
34370;BME280;20635;55.812;37.560;2023-03-14T06:33:11;98559.19;;;22.68;27.58
34370;BME280;20635;55.812;37.560;2023-03-14T06:35:37;98565.59;;;22.68;27.96
34370;BME280;20635;55.812;37.560;2023-03-14T06:38:04;98558.03;;;22.69;27.72
34370;BME280;20635;55.812;37.560;2023-03-14T06:40:30;98561.63;;;22.69;27.75
34370;BME280;20635;55.812;37.560;2023-03-14T06:43:01;98564.41;;;22.69;27.82
34370;BME280;20635;55.812;37.560;2023-03-14T06:45:29;98566.03;;;22.70;27.71
34370;BME280;20635;55.812;37.560;2023-03-14T06:47:57;98568.50;;;22.72;27.60
34370;BME280;20635;55.812;37.560;2023-03-14T06:50:30;98560.13;;;22.72;27.75
34370;BME280;20635;55.812;37.560;2023-03-14T06:52:57;98556.19;;;22.73;27.80
34370;BME280;20635;55.812;37.560;2023-03-14T06:55:25;98558.97;;;22.73;27.95
34370;BME280;20635;55.812;37.560;2023-03-14T06:57:52;98557.00;;;22.73;28.05
34370;BME280;20635;55.812;37.560;2023-03-14T07:00:19;98552.72;;;22.76;28.08
34370;BME280;20635;55.812;37.560;2023-03-14T07:02:45;98546.28;;;22.75;28.18
34370;BME280;20635;55.812;37.560;2023-03-14T07:05:21;98559.94;;;22.77;28.08
34370;BME280;20635;55.812;37.560;2023-03-14T07:07:47;98564.34;;;22.78;28.21
34370;BME280;20635;55.812;37.560;2023-03-14T07:10:14;98553.19;;;22.78;28.03
34370;BME280;20635;55.812;37.560;2023-03-14T07:12:39;98556.78;;;22.78;28.16
34370;BME280;20635;55.812;37.560;2023-03-14T07:15:06;98563.19;;;22.79;28.38
34370;BME280;20635;55.812;37.560;2023-03-14T07:17:32;98570.75;;;22.78;28.26
34370;BME280;20635;55.812;37.560;2023-03-14T07:19:58;98554.81;;;22.79;28.36
34370;BME280;20635;55.812;37.560;2023-03-14T07:22:26;98566.47;;;22.81;28.43
34370;BME280;20635;55.812;37.560;2023-03-14T07:24:52;98569.25;;;22.81;28.21
34370;BME280;20635;55.812;37.560;2023-03-14T07:27:19;98577.63;;;22.81;28.48
34370;BME280;20635;55.812;37.560;2023-03-14T07:29:46;98573.69;;;22.82;28.45
34370;BME280;20635;55.812;37.560;2023-03-14T07:32:12;98574.50;;;22.83;28.61
34370;BME280;20635;55.812;37.560;2023-03-14T07:34:41;98583.38;;;22.85;28.41
34370;BME280;20635;55.812;37.560;2023-03-14T07:37:07;98571.03;;;22.86;28.29
34370;BME280;20635;55.812;37.560;2023-03-14T07:39:34;98573.47;;;22.87;28.55
34370;BME280;20635;55.812;37.560;2023-03-14T07:42:05;98578.69;;;22.89;28.54
34370;BME280;20635;55.812;37.560;2023-03-14T07:44:54;98570.03;;;22.90;28.27
34370;BME280;20635;55.812;37.560;2023-03-14T07:47:20;98571.31;;;22.93;28.40
34370;BME280;20635;55.812;37.560;2023-03-14T07:49:46;98560.94;;;22.93;28.30
34370;BME280;20635;55.812;37.560;2023-03-14T07:52:12;98569.00;;;22.95;28.26
34370;BME280;20635;55.812;37.560;2023-03-14T07:54:38;98561.09;;;22.97;28.27
34370;BME280;20635;55.812;37.560;2023-03-14T07:57:03;98561.09;;;22.97;28.04
34370;BME280;20635;55.812;37.560;2023-03-14T07:59:29;98550.72;;;22.97;28.09
34370;BME280;20635;55.812;37.560;2023-03-14T08:01:55;98545.63;;;22.99;28.13
34370;BME280;20635;55.812;37.560;2023-03-14T08:04:21;98561.22;;;23.00;28.51
34370;BME280;20635;55.812;37.560;2023-03-14T08:06:47;98560.06;;;23.01;28.62
34370;BME280;20635;55.812;37.560;2023-03-14T08:09:13;98570.06;;;23.02;28.37
34370;BME280;20635;55.812;37.560;2023-03-14T08:11:39;98570.53;;;23.04;28.48
34370;BME280;20635;55.812;37.560;2023-03-14T08:14:05;98579.38;;;23.07;28.86
34370;BME280;20635;55.812;37.560;2023-03-14T08:16:31;98577.41;;;23.07;28.65
34370;BME280;20635;55.812;37.560;2023-03-14T08:18:57;98575.47;;;23.08;28.77
34370;BME280;20635;55.812;37.560;2023-03-14T08:21:23;98585.47;;;23.09;28.72
34370;BME280;20635;55.812;37.560;2023-03-14T08:23:48;98589.88;;;23.10;28.55
34370;BME280;20635;55.812;37.560;2023-03-14T08:26:14;98585.94;;;23.11;28.79
34370;BME280;20635;55.812;37.560;2023-03-14T08:28:40;98600.72;;;23.11;28.59
34370;BME280;20635;55.812;37.560;2023-03-14T08:31:06;98586.41;;;23.13;28.66
34370;BME280;20635;55.812;37.560;2023-03-14T08:33:32;98578.84;;;23.13;28.61
34370;BME280;20635;55.812;37.560;2023-03-14T08:35:59;98600.84;;;23.15;28.37
34370;BME280;20635;55.812;37.560;2023-03-14T08:38:26;98584.91;;;23.15;28.67
34370;BME280;20635;55.812;37.560;2023-03-14T08:40:59;98585.38;;;23.17;28.58
34370;BME280;20635;55.812;37.560;2023-03-14T08:43:26;98586.53;;;23.16;28.50
34370;BME280;20635;55.812;37.560;2023-03-14T08:45:52;98588.19;;;23.17;28.71
34370;BME280;20635;55.812;37.560;2023-03-14T08:48:19;98574.22;;;23.17;28.45
34370;BME280;20635;55.812;37.560;2023-03-14T08:50:45;98580.59;;;23.18;28.59
34370;BME280;20635;55.812;37.560;2023-03-14T08:53:11;98568.63;;;23.17;28.55
34370;BME280;20635;55.812;37.560;2023-03-14T08:55:37;98579.44;;;23.19;28.84
34370;BME280;20635;55.812;37.560;2023-03-14T08:58:03;98569.09;;;23.19;28.63
34370;BME280;20635;55.812;37.560;2023-03-14T09:00:29;98556.28;;;23.18;28.43
34370;BME280;20635;55.812;37.560;2023-03-14T09:02:55;98571.06;;;23.19;28.79
34370;BME280;20635;55.812;37.560;2023-03-14T09:05:21;98547.53;;;23.20;28.71
34370;BME280;20635;55.812;37.560;2023-03-14T09:07:46;98571.53;;;23.21;28.67
34370;BME280;20635;55.812;37.560;2023-03-14T09:10:12;98549.16;;;23.21;28.68
34370;BME280;20635;55.812;37.560;2023-03-14T09:12:39;98552.81;;;23.21;28.72
34370;BME280;20635;55.812;37.560;2023-03-14T09:15:05;98565.59;;;23.22;28.63
34370;BME280;20635;55.812;37.560;2023-03-14T09:17:31;98550.47;;;23.23;28.78
34370;BME280;20635;55.812;37.560;2023-03-14T09:19:57;98552.44;;;23.23;28.44
34370;BME280;20635;55.812;37.560;2023-03-14T09:22:23;98554.06;;;23.24;28.43
34370;BME280;20635;55.812;37.560;2023-03-14T09:24:49;98556.88;;;23.24;28.51
34370;BME280;20635;55.812;37.560;2023-03-14T09:27:15;98569.66;;;23.25;28.79
34370;BME280;20635;55.812;37.560;2023-03-14T09:29:41;98571.66;;;23.24;28.47
34370;BME280;20635;55.812;37.560;2023-03-14T09:32:07;98577.25;;;23.24;28.74
34370;BME280;20635;55.812;37.560;2023-03-14T09:34:33;98575.25;;;23.25;28.41
34370;BME280;20635;55.812;37.560;2023-03-14T09:36:59;98581.66;;;23.25;28.73
34370;BME280;20635;55.812;37.560;2023-03-14T09:39:25;98573.28;;;23.25;28.49
34370;BME280;20635;55.812;37.560;2023-03-14T09:41:53;98581.34;;;23.27;28.44
34370;BME280;20635;55.812;37.560;2023-03-14T09:44:21;98583.31;;;23.26;28.41
34370;BME280;20635;55.812;37.560;2023-03-14T09:46:53;98586.94;;;23.27;28.70
34370;BME280;20635;55.812;37.560;2023-03-14T09:49:27;98576.56;;;23.27;29.04
34370;BME280;20635;55.812;37.560;2023-03-14T09:51:56;98580.53;;;23.26;28.85
34370;BME280;20635;55.812;37.560;2023-03-14T09:54:45;98584.59;;;23.29;28.71
34370;BME280;20635;55.812;37.560;2023-03-14T09:57:15;98594.50;;;23.26;28.42
34370;BME280;20635;55.812;37.560;2023-03-14T09:59:44;98584.13;;;23.27;28.68
34370;BME280;20635;55.812;37.560;2023-03-14T10:02:21;98570.63;;;23.29;28.80
34370;BME280;20635;55.812;37.560;2023-03-14T10:04:50;98576.56;;;23.27;28.87
34370;BME280;20635;55.812;37.560;2023-03-14T10:07:23;98582.16;;;23.27;28.82
34370;BME280;20635;55.812;37.560;2023-03-14T10:09:51;98580.16;;;23.28;28.97
34370;BME280;20635;55.812;37.560;2023-03-14T10:12:18;98561.41;;;23.28;28.57
34370;BME280;20635;55.812;37.560;2023-03-14T10:14:49;98554.66;;;23.29;28.69
34370;BME280;20635;55.812;37.560;2023-03-14T10:17:17;98554.47;;;23.35;28.67
34370;BME280;20635;55.812;37.560;2023-03-14T10:19:59;98554.78;;;23.33;28.16
34370;BME280;20635;55.812;37.560;2023-03-14T10:22:34;98556.31;;;23.31;28.55
34370;BME280;20635;55.812;37.560;2023-03-14T10:25:03;98560.59;;;23.28;28.29
34370;BME280;20635;55.812;37.560;2023-03-14T10:27:32;98580.97;;;23.28;28.48
34370;BME280;20635;55.812;37.560;2023-03-14T10:30:00;98580.97;;;23.28;28.20
34370;BME280;20635;55.812;37.560;2023-03-14T10:32:38;98573.41;;;23.29;28.51
34370;BME280;20635;55.812;37.560;2023-03-14T10:35:22;98575.06;;;23.30;28.58
34370;BME280;20635;55.812;37.560;2023-03-14T10:37:57;98572.59;;;23.28;28.48
34370;BME280;20635;55.812;37.560;2023-03-14T10:40:30;98548.63;;;23.27;28.50
34370;BME280;20635;55.812;37.560;2023-03-14T10:42:59;98541.03;;;23.28;28.59
34370;BME280;20635;55.812;37.560;2023-03-14T10:45:38;98539.88;;;23.29;28.80
34370;BME280;20635;55.812;37.560;2023-03-14T10:48:22;98545.94;;;23.31;29.14
34370;BME280;20635;55.812;37.560;2023-03-14T10:53:17;98544.31;;;23.30;29.38
34370;BME280;20635;55.812;37.560;2023-03-14T10:55:44;98544.66;;;23.28;29.66
34370;BME280;20635;55.812;37.560;2023-03-14T10:58:24;98540.34;;;23.31;29.71
34370;BME280;20635;55.812;37.560;2023-03-14T11:03:49;98526.38;;;23.31;30.10
34370;BME280;20635;55.812;37.560;2023-03-14T11:06:21;98518.00;;;23.31;30.32
34370;BME280;20635;55.812;37.560;2023-03-14T11:11:20;98510.88;;;23.34;30.08
34370;BME280;20635;55.812;37.560;2023-03-14T11:14:08;98515.66;;;23.33;30.11
34370;BME280;20635;55.812;37.560;2023-03-14T11:27:54;98534.06;;;23.34;29.90
34370;BME280;20635;55.812;37.560;2023-03-14T11:30:35;98538.38;;;23.32;30.06
34370;BME280;20635;55.812;37.560;2023-03-14T11:33:16;98530.44;;;23.34;30.21
34370;BME280;20635;55.812;37.560;2023-03-14T11:36:08;98540.81;;;23.33;30.20
34370;BME280;20635;55.812;37.560;2023-03-14T11:38:49;98544.09;;;23.35;30.39
34370;BME280;20635;55.812;37.560;2023-03-14T11:41:39;98542.13;;;23.36;30.12
34370;BME280;20635;55.812;37.560;2023-03-14T11:44:30;98534.91;;;23.35;29.95
34370;BME280;20635;55.812;37.560;2023-03-14T11:49:58;98546.41;;;23.33;29.39
34370;BME280;20635;55.812;37.560;2023-03-14T11:52:36;98539.19;;;23.32;29.35
34370;BME280;20635;55.812;37.560;2023-03-14T11:55:13;98556.41;;;23.34;29.38
34370;BME280;20635;55.812;37.560;2023-03-14T11:57:44;98554.34;;;23.31;29.42
34370;BME280;20635;55.812;37.560;2023-03-14T12:00:18;98552.34;;;23.32;29.46
34370;BME280;20635;55.812;37.560;2023-03-14T12:06:35;98569.59;;;23.34;29.36
34370;BME280;20635;55.812;37.560;2023-03-14T12:09:04;98565.50;;;23.31;29.20
34370;BME280;20635;55.812;37.560;2023-03-14T12:14:22;98577.50;;;23.32;29.52
34370;BME280;20635;55.812;37.560;2023-03-14T12:16:52;98577.88;;;23.30;29.41
34370;BME280;20635;55.812;37.560;2023-03-14T12:21:51;98561.91;;;23.31;29.85
34370;BME280;20635;55.812;37.560;2023-03-14T12:24:22;98559.94;;;23.31;29.74
34370;BME280;20635;55.812;37.560;2023-03-14T12:26:56;98568.31;;;23.31;29.79
34370;BME280;20635;55.812;37.560;2023-03-14T12:29:22;98551.53;;;23.31;29.99
34370;BME280;20635;55.812;37.560;2023-03-14T12:32:09;98554.47;;;23.35;29.73
34370;BME280;20635;55.812;37.560;2023-03-14T12:34:42;98573.19;;;23.34;29.54
34370;BME280;20635;55.812;37.560;2023-03-14T12:42:51;98583.56;;;23.34;30.19
34370;BME280;20635;55.812;37.560;2023-03-14T12:45:33;98575.66;;;23.36;29.80
34370;BME280;20635;55.812;37.560;2023-03-14T12:50:46;98572.88;;;23.36;30.03
34370;BME280;20635;55.812;37.560;2023-03-14T12:53:38;98588.34;;;23.33;29.68
34370;BME280;20635;55.812;37.560;2023-03-14T12:56:22;98569.25;;;23.35;29.62
34370;BME280;20635;55.812;37.560;2023-03-14T12:59:05;98574.63;;;23.40;29.76
34370;BME280;20635;55.812;37.560;2023-03-14T13:01:34;98570.06;;;23.36;29.91
34370;BME280;20635;55.812;37.560;2023-03-14T13:04:08;98575.31;;;23.37;29.64
34370;BME280;20635;55.812;37.560;2023-03-14T13:06:53;98570.06;;;23.36;29.99
34370;BME280;20635;55.812;37.560;2023-03-14T13:12:03;98572.06;;;23.35;30.61
34370;BME280;20635;55.812;37.560;2023-03-14T13:14:34;98562.00;;;23.34;30.68
34370;BME280;20635;55.812;37.560;2023-03-14T13:17:01;98562.00;;;23.34;30.48
34370;BME280;20635;55.812;37.560;2023-03-14T13:19:29;98563.66;;;23.35;30.71
34370;BME280;20635;55.812;37.560;2023-03-14T13:22:01;98550.50;;;23.36;30.81
34370;BME280;20635;55.812;37.560;2023-03-14T13:24:28;98552.47;;;23.35;30.68
34370;BME280;20635;55.812;37.560;2023-03-14T13:26:55;98553.63;;;23.34;30.91
34370;BME280;20635;55.812;37.560;2023-03-14T13:31:53;98551.66;;;23.35;30.90
34370;BME280;20635;55.812;37.560;2023-03-14T13:34:20;98554.47;;;23.35;30.91
34370;BME280;20635;55.812;37.560;2023-03-14T13:36:46;98561.69;;;23.36;30.93
34370;BME280;20635;55.812;37.560;2023-03-14T13:39:19;98561.31;;;23.37;31.16
34370;BME280;20635;55.812;37.560;2023-03-14T13:41:47;98562.50;;;23.36;30.83
34370;BME280;20635;55.812;37.560;2023-03-14T13:44:24;98568.53;;;23.38;31.08
34370;BME280;20635;55.812;37.560;2023-03-14T13:46:50;98566.09;;;23.37;31.12
34370;BME280;20635;55.812;37.560;2023-03-14T13:49:22;98560.16;;;23.38;31.10
34370;BME280;20635;55.812;37.560;2023-03-14T13:51:49;98565.28;;;23.36;31.12
34370;BME280;20635;55.812;37.560;2023-03-14T13:54:19;98562.13;;;23.38;31.11
34370;BME280;20635;55.812;37.560;2023-03-14T13:56:46;98562.50;;;23.36;30.92
34370;BME280;20635;55.812;37.560;2023-03-14T13:59:25;98575.78;;;23.39;30.57
34370;BME280;20635;55.812;37.560;2023-03-14T14:01:52;98574.94;;;23.39;30.96
34370;BME280;20635;55.812;37.560;2023-03-14T14:04:21;98569.72;;;23.37;30.91
34370;BME280;20635;55.812;37.560;2023-03-14T14:06:59;98565.44;;;23.40;30.39
34370;BME280;20635;55.812;37.560;2023-03-14T14:09:30;98567.41;;;23.39;30.29
34370;BME280;20635;55.812;37.560;2023-03-14T14:12:14;98571.34;;;23.38;30.44
34370;BME280;20635;55.812;37.560;2023-03-14T14:17:17;98564.59;;;23.39;30.66
34370;BME280;20635;55.812;37.560;2023-03-14T14:19:44;98574.94;;;23.39;30.69
34370;BME280;20635;55.812;37.560;2023-03-14T14:22:11;98560.16;;;23.38;30.57
34370;BME280;20635;55.812;37.560;2023-03-14T14:24:38;98569.34;;;23.39;30.27
34370;BME280;20635;55.812;37.560;2023-03-14T14:27:15;98576.25;;;23.41;30.42
34370;BME280;20635;55.812;37.560;2023-03-14T14:29:43;98581.38;;;23.39;30.28
34370;BME280;20635;55.812;37.560;2023-03-14T14:32:13;98578.59;;;23.39;29.98
34370;BME280;20635;55.812;37.560;2023-03-14T14:34:42;98579.41;;;23.40;29.95
34370;BME280;20635;55.812;37.560;2023-03-14T14:37:28;98580.66;;;23.42;30.18
34370;BME280;20635;55.812;37.560;2023-03-14T14:39:58;98591.41;;;23.40;30.16
34370;BME280;20635;55.812;37.560;2023-03-14T14:42:34;98590.22;;;23.41;29.92
34370;BME280;20635;55.812;37.560;2023-03-14T14:45:02;98579.41;;;23.40;29.98
34370;BME280;20635;55.812;37.560;2023-03-14T14:47:28;98592.56;;;23.39;30.20
34370;BME280;20635;55.812;37.560;2023-03-14T14:49:59;98587.78;;;23.40;29.78
34370;BME280;20635;55.812;37.560;2023-03-14T14:52:41;98599.44;;;23.42;29.43
34370;BME280;20635;55.812;37.560;2023-03-14T14:55:12;98584.75;;;23.45;29.66
34370;BME280;20635;55.812;37.560;2023-03-14T14:57:40;98601.41;;;23.41;29.13
34370;BME280;20635;55.812;37.560;2023-03-14T15:00:24;98583.47;;;23.42;29.21
34370;BME280;20635;55.812;37.560;2023-03-14T15:03:00;98579.03;;;23.41;29.21
34370;BME280;20635;55.812;37.560;2023-03-14T15:05:27;98574.94;;;23.39;29.44
34370;BME280;20635;55.812;37.560;2023-03-14T15:07:55;98570.53;;;23.38;29.41
34370;BME280;20635;55.812;37.560;2023-03-14T15:10:24;98586.47;;;23.37;29.28
34370;BME280;20635;55.812;37.560;2023-03-14T15:12:50;98582.88;;;23.37;28.99
34370;BME280;20635;55.812;37.560;2023-03-14T15:15:17;98585.69;;;23.37;29.25
34370;BME280;20635;55.812;37.560;2023-03-14T15:17:43;98596.03;;;23.36;29.25
34370;BME280;20635;55.812;37.560;2023-03-14T15:20:16;98592.88;;;23.38;29.16
34370;BME280;20635;55.812;37.560;2023-03-14T15:22:43;98599.66;;;23.37;28.94
34370;BME280;20635;55.812;37.560;2023-03-14T15:25:10;98608.38;;;23.35;29.00
34370;BME280;20635;55.812;37.560;2023-03-14T15:27:36;98596.41;;;23.35;29.13
34370;BME280;20635;55.812;37.560;2023-03-14T15:30:15;98597.66;;;23.37;28.86
34370;BME280;20635;55.812;37.560;2023-03-14T15:32:41;98589.97;;;23.34;29.05
34370;BME280;20635;55.812;37.560;2023-03-14T15:35:08;98602.00;;;23.35;28.84
34370;BME280;20635;55.812;37.560;2023-03-14T15:37:34;98592.75;;;23.34;29.19
34370;BME280;20635;55.812;37.560;2023-03-14T15:40:01;98594.75;;;23.34;29.08
34370;BME280;20635;55.812;37.560;2023-03-14T15:42:29;98597.53;;;23.34;29.52
34370;BME280;20635;55.812;37.560;2023-03-14T15:44:55;98593.59;;;23.35;29.53
34370;BME280;20635;55.812;37.560;2023-03-14T15:47:21;98600.31;;;23.34;29.38
34370;BME280;20635;55.812;37.560;2023-03-14T15:49:47;98590.81;;;23.35;29.48
34370;BME280;20635;55.812;37.560;2023-03-14T15:52:13;98596.72;;;23.33;29.63
34370;BME280;20635;55.812;37.560;2023-03-14T15:54:39;98598.34;;;23.34;29.69
34370;BME280;20635;55.812;37.560;2023-03-14T15:57:06;98603.94;;;23.34;29.54
34370;BME280;20635;55.812;37.560;2023-03-14T15:59:32;98606.41;;;23.36;29.66
34370;BME280;20635;55.812;37.560;2023-03-14T16:01:57;98605.59;;;23.35;29.73
34370;BME280;20635;55.812;37.560;2023-03-14T16:04:23;98610.38;;;23.35;29.94
34370;BME280;20635;55.812;37.560;2023-03-14T16:06:49;98600.00;;;23.35;29.73
34370;BME280;20635;55.812;37.560;2023-03-14T16:09:15;98613.97;;;23.35;29.81
34370;BME280;20635;55.812;37.560;2023-03-14T16:11:41;98613.97;;;23.35;29.62
34370;BME280;20635;55.812;37.560;2023-03-14T16:14:07;98624.81;;;23.37;29.45
34370;BME280;20635;55.812;37.560;2023-03-14T16:16:33;98611.19;;;23.35;29.82
34370;BME280;20635;55.812;37.560;2023-03-14T16:18:59;98617.59;;;23.36;29.73
34370;BME280;20635;55.812;37.560;2023-03-14T16:21:25;98614.78;;;23.36;29.74
34370;BME280;20635;55.812;37.560;2023-03-14T16:23:51;98617.59;;;23.36;29.51
34370;BME280;20635;55.812;37.560;2023-03-14T16:26:19;98637.16;;;23.36;29.15
34370;BME280;20635;55.812;37.560;2023-03-14T16:28:46;98647.53;;;23.35;29.38
34370;BME280;20635;55.812;37.560;2023-03-14T16:31:17;98648.00;;;23.37;29.13
34370;BME280;20635;55.812;37.560;2023-03-14T16:33:45;98657.53;;;23.36;29.17
34370;BME280;20635;55.812;37.560;2023-03-14T16:36:12;98668.22;;;23.34;28.99
34370;BME280;20635;55.812;37.560;2023-03-14T16:38:40;98666.28;;;23.35;29.16
34370;BME280;20635;55.812;37.560;2023-03-14T16:41:15;98671.53;;;23.36;29.13
34370;BME280;20635;55.812;37.560;2023-03-14T16:43:43;98658.22;;;23.33;28.95
34370;BME280;20635;55.812;37.560;2023-03-14T16:46:16;98652.75;;;23.37;28.73
34370;BME280;20635;55.812;37.560;2023-03-14T16:48:43;98661.00;;;23.33;29.05
34370;BME280;20635;55.812;37.560;2023-03-14T16:51:09;98654.59;;;23.33;29.04
34370;BME280;20635;55.812;37.560;2023-03-14T16:53:35;98666.97;;;23.32;28.62
34370;BME280;20635;55.812;37.560;2023-03-14T16:56:02;98671.38;;;23.33;28.89
34370;BME280;20635;55.812;37.560;2023-03-14T16:58:28;98681.75;;;23.32;28.99
34370;BME280;20635;55.812;37.560;2023-03-14T17:00:57;98674.53;;;23.31;28.75
34370;BME280;20635;55.812;37.560;2023-03-14T17:03:23;98678.13;;;23.32;29.01
34370;BME280;20635;55.812;37.560;2023-03-14T17:05:52;98671.38;;;23.33;28.56
34370;BME280;20635;55.812;37.560;2023-03-14T17:08:19;98650.19;;;23.32;28.66
34370;BME280;20635;55.812;37.560;2023-03-14T17:10:45;98663.34;;;23.31;28.62
34370;BME280;20635;55.812;37.560;2023-03-14T17:13:11;98665.34;;;23.31;29.25
34370;BME280;20635;55.812;37.560;2023-03-14T17:15:37;98670.44;;;23.28;29.47
34370;BME280;20635;55.812;37.560;2023-03-14T17:18:04;98681.28;;;23.30;29.09
34370;BME280;20635;55.812;37.560;2023-03-14T17:20:30;98669.25;;;23.29;29.21
34370;BME280;20635;55.812;37.560;2023-03-14T17:22:56;98657.28;;;23.29;29.28
34370;BME280;20635;55.812;37.560;2023-03-14T17:25:22;98660.06;;;23.29;29.35
34370;BME280;20635;55.812;37.560;2023-03-14T17:27:48;98665.66;;;23.29;29.24
34370;BME280;20635;55.812;37.560;2023-03-14T17:30:14;98671.25;;;23.29;29.28
34370;BME280;20635;55.812;37.560;2023-03-14T17:32:40;98674.03;;;23.29;29.09
34370;BME280;20635;55.812;37.560;2023-03-14T17:35:07;98674.03;;;23.29;29.32
34370;BME280;20635;55.812;37.560;2023-03-14T17:37:33;98676.84;;;23.29;29.49
34370;BME280;20635;55.812;37.560;2023-03-14T17:40:09;98662.03;;;23.28;29.17
34370;BME280;20635;55.812;37.560;2023-03-14T17:42:35;98688.00;;;23.29;29.34
34370;BME280;20635;55.812;37.560;2023-03-14T17:45:02;98674.84;;;23.29;29.38
34370;BME280;20635;55.812;37.560;2023-03-14T17:47:28;98680.44;;;23.29;29.34
34370;BME280;20635;55.812;37.560;2023-03-14T17:49:54;98680.44;;;23.29;29.67
34370;BME280;20635;55.812;37.560;2023-03-14T17:52:20;98672.06;;;23.29;29.22
34370;BME280;20635;55.812;37.560;2023-03-14T17:54:45;98674.84;;;23.29;29.30
34370;BME280;20635;55.812;37.560;2023-03-14T17:57:11;98660.06;;;23.29;29.29
34370;BME280;20635;55.812;37.560;2023-03-14T17:59:37;98666.47;;;23.29;29.32
34370;BME280;20635;55.812;37.560;2023-03-14T18:02:03;98675.69;;;23.30;29.41
34370;BME280;20635;55.812;37.560;2023-03-14T18:04:29;98670.09;;;23.30;29.35
34370;BME280;20635;55.812;37.560;2023-03-14T18:06:55;98672.06;;;23.29;29.01
34370;BME280;20635;55.812;37.560;2023-03-14T18:09:21;98671.72;;;23.31;29.07
34370;BME280;20635;55.812;37.560;2023-03-14T18:11:49;98668.44;;;23.29;29.07
34370;BME280;20635;55.812;37.560;2023-03-14T18:14:15;98671.25;;;23.29;28.92
34370;BME280;20635;55.812;37.560;2023-03-14T18:16:42;98676.84;;;23.29;29.11
34370;BME280;20635;55.812;37.560;2023-03-14T18:19:16;98686.03;;;23.29;28.75
34370;BME280;20635;55.812;37.560;2023-03-14T18:21:42;98698.06;;;23.30;28.87
34370;BME280;20635;55.812;37.560;2023-03-14T18:24:09;98697.22;;;23.29;28.62
34370;BME280;20635;55.812;37.560;2023-03-14T18:26:36;98690.81;;;23.29;28.81
34370;BME280;20635;55.812;37.560;2023-03-14T18:29:01;98678.00;;;23.28;28.63
34370;BME280;20635;55.812;37.560;2023-03-14T18:31:27;98683.59;;;23.28;28.81
34370;BME280;20635;55.812;37.560;2023-03-14T18:33:54;98691.16;;;23.27;28.32
34370;BME280;20635;55.812;37.560;2023-03-14T18:36:22;98688.38;;;23.27;28.74
34370;BME280;20635;55.812;37.560;2023-03-14T18:38:48;98689.53;;;23.26;28.55
34370;BME280;20635;55.812;37.560;2023-03-14T18:41:18;98699.53;;;23.27;28.37
34370;BME280;20635;55.812;37.560;2023-03-14T18:43:48;98683.13;;;23.26;28.47
34370;BME280;20635;55.812;37.560;2023-03-14T18:46:14;98681.97;;;23.27;28.62
34370;BME280;20635;55.812;37.560;2023-03-14T18:48:41;98694.63;;;23.24;28.57
34370;BME280;20635;55.812;37.560;2023-03-14T18:51:08;98677.03;;;23.24;28.52
34370;BME280;20635;55.812;37.560;2023-03-14T18:53:36;98681.81;;;23.23;28.76
34370;BME280;20635;55.812;37.560;2023-03-14T18:56:03;98678.88;;;23.20;28.80
34370;BME280;20635;55.812;37.560;2023-03-14T18:58:29;98689.25;;;23.19;28.84
34370;BME280;20635;55.812;37.560;2023-03-14T19:00:56;98679.59;;;23.17;28.68
34370;BME280;20635;55.812;37.560;2023-03-14T19:03:22;98683.53;;;23.16;28.60
34370;BME280;20635;55.812;37.560;2023-03-14T19:05:51;98695.06;;;23.14;28.79
34370;BME280;20635;55.812;37.560;2023-03-14T19:08:17;98682.56;;;23.12;29.06
34370;BME280;20635;55.812;37.560;2023-03-14T19:10:44;98690.50;;;23.10;28.83
34370;BME280;20635;55.812;37.560;2023-03-14T19:13:10;98693.28;;;23.10;29.12
34370;BME280;20635;55.812;37.560;2023-03-14T19:15:36;98679.97;;;23.07;29.19
34370;BME280;20635;55.812;37.560;2023-03-14T19:18:02;98694.31;;;23.05;28.81
34370;BME280;20635;55.812;37.560;2023-03-14T19:20:28;98694.66;;;23.03;28.97
34370;BME280;20635;55.812;37.560;2023-03-14T19:22:54;98702.22;;;23.03;29.08
34370;BME280;20635;55.812;37.560;2023-03-14T19:25:23;98706.16;;;23.02;28.97
34370;BME280;20635;55.812;37.560;2023-03-14T19:27:49;98716.06;;;22.99;28.90
34370;BME280;20635;55.812;37.560;2023-03-14T19:30:15;98719.16;;;22.98;28.75
34370;BME280;20635;55.812;37.560;2023-03-14T19:32:41;98712.75;;;22.97;28.73
34370;BME280;20635;55.812;37.560;2023-03-14T19:35:07;98711.13;;;22.96;29.09
34370;BME280;20635;55.812;37.560;2023-03-14T19:37:33;98708.69;;;22.95;28.67
34370;BME280;20635;55.812;37.560;2023-03-14T19:39:59;98710.16;;;22.92;29.13
34370;BME280;20635;55.812;37.560;2023-03-14T19:42:25;98707.38;;;22.92;29.06
34370;BME280;20635;55.812;37.560;2023-03-14T19:44:51;98720.53;;;22.92;28.98
34370;BME280;20635;55.812;37.560;2023-03-14T19:47:18;98706.38;;;22.88;28.72
34370;BME280;20635;55.812;37.560;2023-03-14T19:49:45;98725.13;;;22.88;29.12
34370;BME280;20635;55.812;37.560;2023-03-14T19:52:10;98725.47;;;22.86;29.19
34370;BME280;20635;55.812;37.560;2023-03-14T19:54:36;98705.91;;;22.86;29.20